Time;durP1;ratioP1;P1;durP2;ratioP2;P2;SDS_P1;SDS_P2;PMS_P1;PMS_P2;Temp;Humidity;BMP_temperature;BMP_pressure;BME280_temperature;BME280_humidity;BME280_pressure;Samples;Min_cycle;Max_cycle;Signal;HPM_P1;HPM_P2
2023/04/15 00:00:00;;;;;;;7.53;4.18;;;11.60;75.80;;;;;;5012182;28;20547;-75
2023/04/15 00:02:26;;;;;;;6.30;2.92;;;11.60;75.10;;;;;;5011233;28;20050;-76
2023/04/15 00:04:52;;;;;;;10.43;4.68;;;11.60;76.10;;;;;;5011995;28;20068;-77
2023/04/15 00:07:18;;;;;;;8.32;3.58;;;11.60;75.10;;;;;;5030200;28;20101;-77
2023/04/15 00:09:43;;;;;;;6.82;3.88;;;11.50;75.50;;;;;;5013341;28;20026;-76
2023/04/15 00:12:10;;;;;;;8.38;4.50;;;11.50;75.50;;;;;;5031056;28;20037;-77
2023/04/15 00:14:36;;;;;;;7.97;4.05;;;11.50;75.40;;;;;;5028631;28;20038;-77
2023/04/15 00:17:02;;;;;;;6.40;3.40;;;11.50;75.50;;;;;;5031410;28;20025;-77
2023/04/15 00:19:28;;;;;;;7.70;4.35;;;11.40;75.90;;;;;;5012306;28;20109;-77
2023/04/15 00:21:54;;;;;;;9.02;4.78;;;11.40;76.30;;;;;;5030150;28;20021;-77
2023/04/15 00:24:20;;;;;;;7.70;3.55;;;11.40;76.80;;;;;;5030593;28;20039;-78
2023/04/15 00:26:46;;;;;;;10.18;4.78;;;11.40;76.90;;;;;;5013614;28;20026;-75
2023/04/15 00:29:12;;;;;;;11.07;4.55;;;11.40;78.40;;;;;;5012845;28;20468;-76
2023/04/15 00:31:38;;;;;;;7.47;3.42;;;11.40;78.20;;;;;;5011240;28;20021;-75
2023/04/15 00:34:03;;;;;;;9.25;4.25;;;11.40;78.80;;;;;;5022408;28;20542;-75
2023/04/15 00:36:30;;;;;;;6.88;4.13;;;11.40;79.00;;;;;;5029775;28;20784;-77
2023/04/15 00:38:56;;;;;;;7.40;3.80;;;11.30;78.40;;;;;;5029962;28;20071;-76
2023/04/15 00:41:22;;;;;;;7.95;3.60;;;11.30;79.00;;;;;;5011281;28;21342;-76
2023/04/15 00:43:48;;;;;;;9.77;4.18;;;11.30;79.00;;;;;;5012277;28;20037;-76
2023/04/15 00:46:16;;;;;;;5.68;2.95;;;11.30;79.10;;;;;;5023086;28;20448;-76
2023/04/15 00:48:42;;;;;;;9.57;3.90;;;11.30;80.50;;;;;;5022860;28;20067;-75
2023/04/15 00:51:08;;;;;;;7.15;3.47;;;11.30;79.70;;;;;;5028636;28;20369;-75
2023/04/15 00:53:34;;;;;;;8.32;4.30;;;11.30;80.70;;;;;;5027559;28;20037;-74
2023/04/15 00:55:59;;;;;;;10.00;5.10;;;11.30;80.40;;;;;;5010060;28;20038;-75
2023/04/15 00:58:31;;;;;;;9.00;4.13;;;11.30;80.90;;;;;;5027544;28;20030;-76
2023/04/15 01:00:57;;;;;;;7.18;4.28;;;11.30;81.60;;;;;;5014965;28;20526;-77
2023/04/15 01:03:24;;;;;;;7.05;3.80;;;11.20;81.80;;;;;;5028256;28;20132;-78
2023/04/15 01:05:51;;;;;;;10.32;4.88;;;11.20;82.10;;;;;;5029148;28;20028;-76
2023/04/15 01:08:17;;;;;;;8.38;4.65;;;11.20;81.80;;;;;;5028257;28;20356;-76
2023/04/15 01:10:45;;;;;;;9.77;5.07;;;11.20;81.90;;;;;;5029522;28;20507;-77
2023/04/15 01:13:11;;;;;;;8.52;4.35;;;11.10;81.70;;;;;;5029509;28;20025;-76
2023/04/15 01:15:38;;;;;;;7.05;3.28;;;11.20;82.70;;;;;;5022907;28;20029;-76
2023/04/15 01:18:04;;;;;;;9.98;5.30;;;11.20;82.90;;;;;;5013642;28;20097;-76
2023/04/15 01:20:33;;;;;;;8.55;4.55;;;11.20;82.30;;;;;;5033718;28;20438;-76
2023/04/15 01:22:59;;;;;;;6.60;3.88;;;11.10;82.20;;;;;;5013515;28;20089;-75
2023/04/15 01:25:43;;;;;;;9.68;5.22;;;11.10;83.40;;;;;;5029029;28;20104;-76
2023/04/15 01:28:09;;;;;;;10.20;4.75;;;11.10;83.60;;;;;;5007375;28;20030;-75
2023/04/15 01:30:35;;;;;;;8.13;4.82;;;11.10;83.50;;;;;;5026744;28;20442;-75
2023/04/15 01:33:03;;;;;;;10.27;5.03;;;11.10;83.20;;;;;;5031727;28;20017;-76
2023/04/15 01:35:28;;;;;;;9.80;5.03;;;11.10;83.20;;;;;;5014497;28;20034;-76
2023/04/15 01:38:02;;;;;;;9.27;4.68;;;11.00;83.40;;;;;;5022949;28;20025;-76
2023/04/15 01:40:29;;;;;;;9.35;4.68;;;11.10;84.00;;;;;;5014813;28;20033;-76
2023/04/15 01:42:55;;;;;;;8.93;5.00;;;11.00;83.50;;;;;;5031555;28;20598;-76
2023/04/15 01:45:23;;;;;;;7.85;4.03;;;11.00;84.60;;;;;;5014768;28;20018;-76
2023/04/15 01:47:49;;;;;;;10.10;5.72;;;11.00;84.50;;;;;;5032899;28;20480;-76
2023/04/15 01:50:17;;;;;;;8.57;4.65;;;11.00;84.90;;;;;;5031789;28;20017;-77
2023/04/15 01:52:43;;;;;;;10.73;5.25;;;11.00;86.20;;;;;;5032818;28;20030;-76
2023/04/15 01:55:10;;;;;;;7.82;4.07;;;11.00;85.90;;;;;;5014171;28;20030;-77
2023/04/15 01:57:35;;;;;;;9.32;5.53;;;11.00;86.50;;;;;;5031655;28;20029;-75
2023/04/15 02:00:03;;;;;;;9.75;5.22;;;10.90;85.20;;;;;;5033097;28;20544;-76
2023/04/15 02:02:29;;;;;;;6.65;3.95;;;10.90;85.60;;;;;;5002785;28;20046;-76
2023/04/15 02:04:55;;;;;;;8.63;4.18;;;10.90;86.60;;;;;;5007036;28;20025;-76
2023/04/15 02:07:21;;;;;;;10.32;4.10;;;10.90;87.20;;;;;;5009643;28;20018;-76
2023/04/15 02:09:47;;;;;;;8.75;4.35;;;10.90;86.50;;;;;;5011856;28;20037;-75
2023/04/15 02:12:14;;;;;;;8.00;5.10;;;10.90;87.10;;;;;;5012623;28;20028;-76
2023/04/15 02:14:40;;;;;;;8.07;4.43;;;10.90;86.60;;;;;;5006847;28;20041;-76
2023/04/15 02:17:07;;;;;;;9.30;5.38;;;10.90;86.30;;;;;;5010293;28;20129;-76
2023/04/15 02:19:35;;;;;;;6.82;4.32;;;10.90;86.70;;;;;;5005954;28;20066;-75
2023/04/15 02:22:01;;;;;;;7.38;3.85;;;10.90;87.60;;;;;;5008045;28;20072;-75
2023/04/15 02:24:29;;;;;;;7.13;3.67;;;10.90;88.10;;;;;;5010508;28;20033;-75
2023/04/15 02:26:56;;;;;;;11.50;4.35;;;11.00;89.00;;;;;;5011801;28;20486;-75
2023/04/15 02:29:22;;;;;;;8.88;4.07;;;10.90;88.60;;;;;;5012040;28;20503;-75
2023/04/15 02:31:48;;;;;;;7.35;3.78;;;11.00;89.20;;;;;;5010138;28;20062;-76
2023/04/15 02:34:15;;;;;;;9.05;3.67;;;10.90;88.80;;;;;;5011015;28;20401;-77
2023/04/15 02:36:42;;;;;;;11.63;4.40;;;10.90;89.00;;;;;;5011055;28;20097;-76
2023/04/15 02:39:08;;;;;;;7.88;4.88;;;10.90;89.30;;;;;;5010611;28;20025;-75
2023/04/15 02:41:34;;;;;;;6.60;2.90;;;10.90;89.60;;;;;;5012171;28;20022;-76
2023/04/15 02:44:00;;;;;;;9.32;4.75;;;10.90;90.30;;;;;;5011020;28;20025;-76
2023/04/15 02:46:26;;;;;;;7.25;3.70;;;10.90;90.00;;;;;;4993746;28;20030;-77
2023/04/15 02:48:52;;;;;;;7.00;2.05;;;10.90;90.60;;;;;;5011661;28;20034;-77
2023/04/15 02:51:20;;;;;;;7.15;3.88;;;10.80;90.70;;;;;;5012237;28;20022;-76
2023/04/15 02:53:46;;;;;;;4.25;2.35;;;10.80;90.90;;;;;;5011444;28;20030;-75
2023/04/15 02:56:14;;;;;;;9.05;3.00;;;10.80;91.30;;;;;;5012684;28;20439;-77
2023/04/15 02:58:40;;;;;;;3.97;1.60;;;10.80;91.70;;;;;;5012411;28;20077;-77
2023/04/15 03:01:09;;;;;;;7.25;2.47;;;10.70;92.20;;;;;;5012824;28;20044;-75
2023/04/15 03:03:35;;;;;;;7.47;2.10;;;10.70;92.20;;;;;;5028713;28;20160;-76
2023/04/15 03:06:02;;;;;;;5.72;2.95;;;10.60;92.40;;;;;;5030337;28;20100;-76
2023/04/15 03:08:28;;;;;;;5.03;3.42;;;10.60;92.70;;;;;;5029447;28;20116;-76
2023/04/15 03:10:53;;;;;;;6.70;3.67;;;10.50;92.20;;;;;;5031805;28;20099;-76
2023/04/15 03:13:20;;;;;;;9.00;5.07;;;10.50;92.20;;;;;;5013372;28;20017;-76
2023/04/15 03:15:48;;;;;;;8.05;4.70;;;10.50;92.20;;;;;;5016225;28;20026;-77
2023/04/15 03:18:14;;;;;;;7.47;3.35;;;10.40;92.30;;;;;;5033075;28;20039;-77
2023/04/15 03:20:40;;;;;;;9.00;3.85;;;10.40;92.60;;;;;;5014707;28;20032;-77
2023/04/15 03:23:06;;;;;;;12.13;5.55;;;10.40;92.60;;;;;;5032122;28;20066;-77
2023/04/15 03:25:31;;;;;;;9.13;4.88;;;10.40;92.80;;;;;;5031524;28;20021;-77
2023/04/15 03:27:58;;;;;;;6.85;3.97;;;10.40;92.80;;;;;;5031656;28;20017;-77
2023/04/15 03:30:24;;;;;;;8.52;3.65;;;10.40;92.90;;;;;;5031683;28;20014;-77
2023/04/15 03:32:50;;;;;;;5.78;2.90;;;10.30;93.00;;;;;;5028405;28;20344;-76
2023/04/15 03:35:16;;;;;;;8.68;5.97;;;10.30;93.40;;;;;;5011227;28;20029;-76
2023/04/15 03:37:41;;;;;;;8.38;2.83;;;10.20;92.80;;;;;;5029500;28;20030;-76
2023/04/15 03:40:08;;;;;;;6.13;2.35;;;10.30;93.60;;;;;;5030027;28;20017;-76
2023/04/15 03:42:34;;;;;;;7.28;4.57;;;10.30;93.90;;;;;;5030029;28;20029;-76
2023/04/15 03:45:00;;;;;;;10.75;3.72;;;10.20;93.70;;;;;;5029690;28;20502;-76
2023/04/15 03:47:25;;;;;;;9.07;3.45;;;10.20;93.80;;;;;;5029851;28;20411;-77
2023/04/15 03:49:54;;;;;;;6.85;3.53;;;10.20;94.30;;;;;;5012740;28;20020;-76
2023/04/15 03:52:20;;;;;;;9.15;6.15;;;10.10;94.20;;;;;;5011822;28;20387;-76
2023/04/15 03:54:46;;;;;;;11.57;5.13;;;10.10;94.00;;;;;;5030722;28;20037;-76
2023/04/15 03:57:12;;;;;;;9.52;5.88;;;10.10;94.10;;;;;;5030474;28;20567;-76
2023/04/15 03:59:38;;;;;;;10.27;4.85;;;10.00;94.20;;;;;;5032751;28;20029;-76
2023/04/15 04:02:03;;;;;;;6.63;2.95;;;10.00;94.40;;;;;;5031587;28;20049;-77
2023/04/15 04:04:29;;;;;;;9.27;5.53;;;10.00;94.60;;;;;;5011785;28;20088;-77
2023/04/15 04:06:55;;;;;;;13.52;4.65;;;9.90;94.50;;;;;;5030645;28;20504;-75
2023/04/15 04:09:20;;;;;;;12.70;7.50;;;9.90;94.50;;;;;;5030265;28;20846;-76
2023/04/15 04:11:46;;;;;;;8.02;4.13;;;9.80;94.30;;;;;;5012210;28;20017;-76
2023/04/15 04:14:12;;;;;;;7.18;4.32;;;9.80;94.40;;;;;;5030337;28;20030;-75
2023/04/15 04:16:38;;;;;;;9.52;5.38;;;9.80;94.50;;;;;;5029864;28;20060;-76
2023/04/15 04:19:04;;;;;;;5.07;3.38;;;9.80;94.70;;;;;;5029712;28;20476;-76
2023/04/15 04:21:30;;;;;;;6.32;3.78;;;9.80;95.10;;;;;;5030035;28;20031;-77
2023/04/15 04:23:56;;;;;;;7.35;3.55;;;9.70;95.10;;;;;;5030579;28;20029;-77
2023/04/15 04:26:21;;;;;;;7.22;3.03;;;9.70;95.20;;;;;;5011042;28;21040;-76
2023/04/15 04:28:49;;;;;;;7.57;4.15;;;9.70;95.40;;;;;;5030294;28;20029;-76
2023/04/15 04:31:15;;;;;;;8.60;3.85;;;9.70;95.30;;;;;;5029927;28;20018;-77
2023/04/15 04:33:41;;;;;;;5.93;1.35;;;9.60;95.40;;;;;;5012320;28;20084;-77
2023/04/15 04:36:07;;;;;;;14.30;5.40;;;9.70;96.00;;;;;;5028547;28;20037;-76
2023/04/15 04:38:32;;;;;;;7.80;4.90;;;9.70;96.00;;;;;;5029756;28;20025;-77
2023/04/15 04:40:59;;;;;;;8.65;5.43;;;9.60;95.90;;;;;;5031036;28;20491;-77
2023/04/15 04:43:29;;;;;;;9.27;4.93;;;9.60;95.90;;;;;;5013351;28;20110;-76
2023/04/15 04:45:55;;;;;;;;;;;9.50;96.00;;;;;;5027663;28;20021;-77
2023/04/15 04:48:21;;;;;;;8.88;5.57;;;9.60;96.20;;;;;;5030884;28;19966;-77
2023/04/15 04:50:50;;;;;;;9.13;5.15;;;9.50;96.10;;;;;;5029833;28;20056;-76
2023/04/15 04:53:16;;;;;;;6.22;3.58;;;9.40;96.20;;;;;;5030228;28;20080;-77
2023/04/15 04:55:42;;;;;;;8.40;6.03;;;9.40;96.50;;;;;;5012862;28;20029;-76
2023/04/15 04:58:09;;;;;;;6.97;3.13;;;9.40;96.30;;;;;;5030765;28;20024;-77
2023/04/15 05:00:36;;;;;;;7.97;4.13;;;9.40;96.70;;;;;;5012628;28;20021;-77
2023/04/15 05:03:02;;;;;;;7.25;2.72;;;9.40;96.80;;;;;;5030277;28;20073;-77
2023/04/15 05:05:28;;;;;;;7.70;3.25;;;9.40;97.00;;;;;;5011432;28;20045;-76
2023/04/15 05:07:53;;;;;;;6.82;2.75;;;9.40;97.00;;;;;;5012796;28;20032;-76
2023/04/15 05:10:20;;;;;;;6.75;3.60;;;9.40;97.20;;;;;;5030844;28;20026;-76
2023/04/15 05:12:46;;;;;;;8.20;3.50;;;9.30;97.20;;;;;;5030028;28;20053;-76
2023/04/15 05:15:11;;;;;;;13.48;6.53;;;9.40;97.30;;;;;;5011701;28;20060;-76
2023/04/15 05:17:37;;;;;;;12.45;6.65;;;9.30;97.10;;;;;;5027712;28;20026;-76
2023/04/15 05:20:03;;;;;;;4.75;2.35;;;9.30;96.90;;;;;;4994777;28;20034;-76
2023/04/15 05:22:30;;;;;;;9.90;3.42;;;9.40;97.30;;;;;;5023060;28;20030;-76
2023/04/15 05:24:55;;;;;;;11.52;7.18;;;9.40;97.40;;;;;;5011033;28;20033;-76
2023/04/15 05:27:22;;;;;;;8.70;4.20;;;9.40;97.30;;;;;;5027672;28;20456;-76
2023/04/15 05:29:48;;;;;;;9.35;3.90;;;9.40;97.40;;;;;;5010787;28;20018;-77
2023/04/15 05:32:14;;;;;;;11.27;7.30;;;9.40;97.60;;;;;;5027008;28;20013;-77
2023/04/15 05:34:40;;;;;;;5.78;2.65;;;9.40;97.50;;;;;;5028875;28;20083;-77
2023/04/15 05:37:06;;;;;;;13.85;5.32;;;9.40;97.80;;;;;;5029260;28;20534;-76
2023/04/15 05:39:32;;;;;;;9.98;5.97;;;9.50;97.80;;;;;;5028975;28;20108;-76
2023/04/15 05:41:58;;;;;;;10.90;6.50;;;9.40;97.60;;;;;;5010688;28;20121;-76
2023/04/15 05:44:24;;;;;;;9.52;6.53;;;9.50;97.60;;;;;;5029672;28;20026;-75
2023/04/15 05:46:50;;;;;;;6.75;2.60;;;9.50;97.40;;;;;;5030215;28;20021;-76
2023/04/15 05:49:17;;;;;;;7.95;4.70;;;9.50;97.60;;;;;;5030159;28;20080;-76
2023/04/15 05:51:42;;;;;;;6.20;2.80;;;9.60;97.70;;;;;;5030709;28;20164;-76
2023/04/15 05:54:08;;;;;;;6.43;2.40;;;9.70;97.60;;;;;;5029449;28;20108;-75
2023/04/15 05:56:34;;;;;;;7.85;3.00;;;9.80;97.50;;;;;;5028639;28;20488;-76
2023/04/15 05:59:00;;;;;;;16.88;8.98;;;9.90;97.40;;;;;;5027940;28;20033;-77
2023/04/15 06:01:26;;;;;;;8.50;5.13;;;10.00;97.00;;;;;;5031492;28;20082;-76
2023/04/15 06:03:52;;;;;;;13.00;8.65;;;10.10;96.90;;;;;;5029764;28;20100;-76
2023/04/15 06:06:17;;;;;;;11.65;6.63;;;10.20;96.40;;;;;;5028935;28;20026;-76
2023/04/15 06:08:43;;;;;;;9.02;4.80;;;10.30;96.20;;;;;;5022546;28;20056;-80
2023/04/15 06:11:10;;;;;;;12.50;5.15;;;10.40;96.20;;;;;;5031290;28;20048;-76
2023/04/15 06:13:35;;;;;;;9.27;3.47;;;10.50;96.00;;;;;;5003076;28;20046;-77
2023/04/15 06:16:03;;;;;;;14.65;7.55;;;10.60;96.10;;;;;;5029819;28;20025;-76
2023/04/15 06:18:29;;;;;;;13.50;9.65;;;10.70;95.80;;;;;;5012006;28;20024;-76
2023/04/15 06:20:55;;;;;;;9.73;6.63;;;10.70;95.10;;;;;;5032720;28;20026;-78
2023/04/15 06:23:24;;;;;;;12.88;5.78;;;10.70;95.60;;;;;;5015772;28;20017;-76
2023/04/15 06:25:50;;;;;;;11.05;8.05;;;10.80;95.60;;;;;;5029537;28;20024;-75
2023/04/15 06:28:19;;;;;;;13.52;8.63;;;10.80;95.40;;;;;;5032548;28;20029;-74
2023/04/15 06:30:45;;;;;;;10.03;6.60;;;10.80;95.20;;;;;;5031420;28;20059;-76
2023/04/15 06:33:11;;;;;;;9.02;5.72;;;10.80;95.30;;;;;;5031382;28;20045;-74
2023/04/15 06:35:38;;;;;;;10.50;3.33;;;10.90;95.40;;;;;;5032116;28;20033;-74
2023/04/15 06:38:03;;;;;;;11.18;7.45;;;11.00;95.70;;;;;;5029237;28;20033;-73
2023/04/15 06:40:29;;;;;;;13.80;9.43;;;11.00;95.20;;;;;;5031163;28;20029;-74
2023/04/15 06:42:55;;;;;;;13.02;10.32;;;11.00;94.50;;;;;;5015303;28;20725;-74
2023/04/15 06:45:21;;;;;;;11.32;6.45;;;11.10;94.30;;;;;;5026028;28;20044;-75
2023/04/15 06:47:46;;;;;;;11.23;5.65;;;11.10;94.30;;;;;;5011922;28;20033;-74
2023/04/15 06:50:12;;;;;;;12.60;6.35;;;11.10;94.40;;;;;;5011093;28;20025;-75
2023/04/15 06:52:38;;;;;;;13.30;7.55;;;11.10;94.30;;;;;;5012099;28;20021;-75
2023/04/15 06:55:04;;;;;;;12.82;9.32;;;11.10;94.40;;;;;;5012668;28;20048;-76
2023/04/15 06:57:30;;;;;;;15.60;10.57;;;11.10;93.80;;;;;;5029827;28;20026;-74
2023/04/15 06:59:57;;;;;;;11.20;6.20;;;11.10;93.60;;;;;;5029482;28;20439;-75
2023/04/15 07:02:22;;;;;;;11.55;5.95;;;11.20;94.00;;;;;;5029398;28;20052;-74
2023/04/15 07:04:48;;;;;;;13.18;8.60;;;11.20;94.00;;;;;;5002096;28;20029;-74
2023/04/15 07:07:16;;;;;;;11.85;7.72;;;11.30;93.70;;;;;;5018067;28;20021;-74
2023/04/15 07:09:42;;;;;;;14.52;7.40;;;11.30;93.50;;;;;;5037385;28;20156;-75
2023/04/15 07:12:07;;;;;;;11.98;7.20;;;11.40;93.50;;;;;;5038520;28;20112;-75
2023/04/15 07:14:33;;;;;;;12.65;7.70;;;11.40;93.70;;;;;;5030559;28;20884;-76
2023/04/15 07:16:58;;;;;;;12.20;7.68;;;11.40;93.40;;;;;;5007478;28;20026;-74
2023/04/15 07:19:24;;;;;;;13.63;7.97;;;11.30;93.60;;;;;;5029602;28;20132;-76
2023/04/15 07:21:50;;;;;;;12.80;7.72;;;11.20;93.50;;;;;;5025337;28;20025;-76
2023/04/15 07:24:17;;;;;;;12.45;8.25;;;11.10;93.60;;;;;;5012716;28;20087;-74
2023/04/15 07:26:44;;;;;;;10.93;6.35;;;11.10;93.50;;;;;;5022620;28;20021;-76
2023/04/15 07:29:10;;;;;;;8.00;4.43;;;11.10;93.80;;;;;;5029546;28;20017;-75
2023/04/15 07:31:38;;;;;;;14.63;9.07;;;11.10;94.10;;;;;;5026278;28;20027;-75
2023/04/15 07:34:05;;;;;;;8.23;4.05;;;11.20;94.30;;;;;;5026669;28;20484;-75
2023/04/15 07:36:31;;;;;;;11.20;5.93;;;11.30;94.60;;;;;;5027343;28;20030;-74
2023/04/15 07:38:57;;;;;;;5.65;3.45;;;11.30;93.80;;;;;;5028296;28;20376;-73
2023/04/15 07:41:24;;;;;;;8.98;5.82;;;11.40;94.20;;;;;;5028258;28;20009;-74
2023/04/15 07:43:50;;;;;;;7.40;4.78;;;11.40;93.30;;;;;;5026551;28;20480;-74
2023/04/15 07:46:15;;;;;;;9.05;5.88;;;11.50;93.20;;;;;;5023302;28;20040;-74
2023/04/15 07:48:41;;;;;;;11.45;4.65;;;11.60;93.60;;;;;;5027487;28;20044;-73
2023/04/15 07:51:07;;;;;;;9.57;6.07;;;11.60;93.60;;;;;;5009903;28;20029;-74
2023/04/15 07:53:33;;;;;;;15.07;4.38;;;11.70;93.20;;;;;;5027098;28;20033;-74
2023/04/15 07:55:58;;;;;;;7.82;4.80;;;11.80;93.60;;;;;;5021067;28;20037;-75
2023/04/15 07:58:24;;;;;;;14.00;7.28;;;11.80;93.10;;;;;;5025305;28;20048;-73
2023/04/15 08:00:50;;;;;;;9.27;3.80;;;11.90;93.00;;;;;;5029021;28;20117;-74
2023/04/15 08:03:16;;;;;;;11.90;7.93;;;11.90;93.20;;;;;;5028704;28;20175;-74
2023/04/15 08:05:41;;;;;;;12.45;7.50;;;11.90;93.20;;;;;;5029874;28;20539;-74
2023/04/15 08:08:07;;;;;;;6.50;2.95;;;11.90;92.70;;;;;;5029130;28;20025;-74
2023/04/15 08:10:34;;;;;;;12.15;7.72;;;12.00;93.40;;;;;;5028810;28;20049;-74
2023/04/15 08:13:00;;;;;;;7.47;4.57;;;12.10;92.60;;;;;;5025909;28;20104;-74
2023/04/15 08:15:26;;;;;;;8.40;5.20;;;12.10;92.80;;;;;;5028360;28;20156;-74
2023/04/15 08:17:51;;;;;;;7.57;4.30;;;12.30;92.90;;;;;;5024912;28;20038;-73
2023/04/15 08:20:17;;;;;;;8.57;3.70;;;12.30;92.80;;;;;;5027376;28;20083;-73
2023/04/15 08:22:43;;;;;;;6.97;4.88;;;12.40;93.00;;;;;;5010758;28;20053;-74
2023/04/15 08:25:09;;;;;;;12.20;7.53;;;12.50;92.30;;;;;;5028133;28;20033;-73
2023/04/15 08:27:35;;;;;;;8.25;4.35;;;12.50;91.70;;;;;;5027391;28;20026;-74
2023/04/15 08:30:01;;;;;;;8.88;3.70;;;12.70;92.30;;;;;;5028333;28;20063;-74
2023/04/15 08:32:26;;;;;;;7.28;4.10;;;12.70;92.10;;;;;;5034624;28;20567;-74
2023/04/15 08:34:53;;;;;;;8.95;2.80;;;12.80;92.20;;;;;;5030074;28;20136;-74
2023/04/15 08:37:18;;;;;;;5.80;2.90;;;12.80;92.70;;;;;;5028313;28;20456;-74
2023/04/15 08:39:45;;;;;;;5.22;2.50;;;12.90;92.30;;;;;;5027061;28;20021;-73
2023/04/15 08:42:18;;;;;;;6.53;3.40;;;12.90;92.60;;;;;;5027416;28;20064;-74
2023/04/15 08:44:45;;;;;;;5.93;2.97;;;12.90;92.00;;;;;;5023299;28;20710;-75
2023/04/15 08:47:12;;;;;;;5.22;3.08;;;13.00;91.80;;;;;;5026468;28;20104;-73
2023/04/15 08:49:40;;;;;;;5.03;1.80;;;13.10;91.70;;;;;;5030518;28;20022;-74
2023/04/15 08:52:06;;;;;;;4.57;2.50;;;13.10;92.40;;;;;;5008970;28;20523;-75
2023/04/15 08:54:33;;;;;;;8.55;4.00;;;13.10;91.70;;;;;;5026369;28;20157;-75
2023/04/15 08:57:08;;;;;;;6.80;3.03;;;13.00;91.50;;;;;;5033032;28;20073;-77
2023/04/15 08:59:34;;;;;;;3.95;2.20;;;13.10;90.90;;;;;;5032736;28;20369;-74
2023/04/15 09:02:00;;;;;;;4.93;2.42;;;13.20;92.10;;;;;;5021885;28;20077;-74
2023/04/15 09:04:27;;;;;;;5.90;3.35;;;13.20;92.10;;;;;;5036554;28;20646;-75
2023/04/15 09:06:53;;;;;;;5.07;2.83;;;13.10;91.70;;;;;;5028055;28;20075;-75
2023/04/15 09:09:20;;;;;;;6.63;2.22;;;13.10;91.00;;;;;;5027498;28;20427;-74
2023/04/15 09:11:46;;;;;;;3.97;2.00;;;13.20;91.40;;;;;;5027882;28;20022;-75
2023/04/15 09:14:12;;;;;;;6.43;4.03;;;13.30;92.00;;;;;;5028338;28;20041;-76
2023/04/15 09:16:57;;;;;;;6.07;2.50;;;13.40;90.60;;;;;;5029346;28;20124;-75
2023/04/15 09:19:24;;;;;;;6.00;3.28;;;13.50;91.90;;;;;;5015095;28;20033;-75
2023/04/15 09:21:52;;;;;;;3.50;1.85;;;13.60;91.50;;;;;;5024025;28;20057;-76
2023/04/15 09:24:18;;;;;;;5.25;2.35;;;13.60;92.20;;;;;;5006936;28;20029;-75
2023/04/15 09:26:44;;;;;;;6.40;2.45;;;13.60;91.80;;;;;;5026250;28;20033;-75
2023/04/15 09:29:13;;;;;;;5.45;2.30;;;13.80;91.40;;;;;;5026226;28;20564;-74
2023/04/15 09:31:40;;;;;;;5.10;2.53;;;13.90;91.50;;;;;;5025900;28;20419;-75
2023/04/15 09:34:06;;;;;;;6.30;3.80;;;13.90;91.60;;;;;;5023586;28;20431;-74
2023/04/15 09:37:01;;;;;;;4.72;2.00;;;14.00;90.80;;;;;;5024387;28;20065;-74
2023/04/15 09:39:26;;;;;;;6.88;2.45;;;14.20;91.30;;;;;;5002473;28;20045;-74
2023/04/15 09:42:08;;;;;;;6.18;3.05;;;14.40;90.70;;;;;;5024318;28;20037;-74
2023/04/15 09:44:33;;;;;;;5.22;2.67;;;14.60;90.00;;;;;;4999276;28;20325;-75
2023/04/15 09:46:59;;;;;;;5.80;3.42;;;14.70;89.80;;;;;;5025988;28;20108;-75
2023/04/15 09:49:25;;;;;;;4.82;2.42;;;14.70;88.00;;;;;;5027368;28;20022;-75
2023/04/15 09:51:57;;;;;;;5.90;3.42;;;14.80;90.30;;;;;;5027702;28;20086;-74
2023/04/15 09:54:22;;;;;;;5.63;3.55;;;14.70;88.10;;;;;;5030260;28;20037;-75
2023/04/15 09:56:48;;;;;;;6.90;3.40;;;14.60;87.90;;;;;;5031699;28;20140;-74
2023/04/15 09:59:14;;;;;;;4.75;1.92;;;14.50;87.40;;;;;;5031702;28;20072;-75
2023/04/15 10:01:41;;;;;;;3.60;1.67;;;14.60;89.90;;;;;;5030211;28;20075;-74
2023/04/15 10:04:08;;;;;;;4.55;2.35;;;14.80;90.40;;;;;;5030131;28;20021;-74
2023/04/15 10:06:35;;;;;;;5.93;1.85;;;14.80;89.60;;;;;;5030733;28;20407;-75
2023/04/15 10:09:01;;;;;;;5.15;2.95;;;14.90;90.20;;;;;;5013715;28;20097;-75
2023/04/15 10:11:30;;;;;;;6.88;3.20;;;15.20;89.00;;;;;;5018963;28;20029;-73
2023/04/15 10:13:56;;;;;;;5.50;2.80;;;15.40;88.00;;;;;;5030478;28;20036;-74
2023/04/15 10:16:28;;;;;;;5.75;2.45;;;15.50;87.80;;;;;;5030006;28;20325;-74
2023/04/15 10:18:55;;;;;;;4.15;2.00;;;15.60;87.20;;;;;;5030800;28;20075;-74
2023/04/15 10:21:22;;;;;;;3.83;2.22;;;15.50;88.00;;;;;;5018002;28;20025;-75
2023/04/15 10:23:48;;;;;;;3.63;2.15;;;15.70;87.20;;;;;;5031054;28;20089;-76
2023/04/15 10:26:16;;;;;;;7.65;2.20;;;15.70;88.00;;;;;;5031123;28;20025;-75
2023/04/15 10:28:42;;;;;;;4.88;2.45;;;15.80;88.40;;;;;;5031150;28;20079;-75
2023/04/15 10:31:11;;;;;;;5.53;3.65;;;16.00;85.00;;;;;;5031304;28;20030;-75
2023/04/15 10:33:38;;;;;;;4.25;2.03;;;16.00;85.60;;;;;;5011707;28;20069;-75
2023/04/15 10:36:05;;;;;;;5.28;3.17;;;16.10;86.60;;;;;;5029632;28;20531;-76
2023/04/15 10:38:39;;;;;;;5.28;2.75;;;16.10;82.60;;;;;;5026365;28;20017;-75
2023/04/15 10:41:19;;;;;;;6.95;3.25;;;16.20;81.70;;;;;;5030462;28;20029;-75
2023/04/15 10:43:51;;;;;;;3.05;1.42;;;16.50;81.10;;;;;;5012760;28;20091;-75
2023/04/15 10:46:47;;;;;;;3.67;1.42;;;16.60;86.40;;;;;;5029539;28;20022;-74
2023/04/15 10:49:23;;;;;;;4.63;2.42;;;16.60;83.90;;;;;;5012925;28;20022;-74
2023/04/15 10:51:52;;;;;;;4.03;1.75;;;16.40;83.10;;;;;;5030947;28;20033;-73
2023/04/15 10:54:23;;;;;;;3.22;1.83;;;16.30;87.10;;;;;;5027640;28;20120;-74
2023/04/15 10:57:14;;;;;;;5.15;2.30;;;16.20;86.20;;;;;;5019651;28;20026;-75
2023/04/15 10:59:59;;;;;;;3.60;2.22;;;16.30;86.90;;;;;;5023238;28;20033;-77
2023/04/15 11:02:51;;;;;;;4.25;1.60;;;16.50;85.10;;;;;;5028989;28;20057;-75
2023/04/15 11:05:18;;;;;;;5.82;2.90;;;16.70;85.10;;;;;;5028803;28;20028;-74
2023/04/15 11:07:50;;;;;;;4.45;2.30;;;16.80;79.50;;;;;;5020019;28;20038;-75
2023/04/15 11:10:25;;;;;;;3.30;1.55;;;16.70;79.90;;;;;;5029308;28;20026;-74
2023/04/15 11:12:53;;;;;;;4.55;1.77;;;16.70;84.30;;;;;;5011838;28;20749;-75
2023/04/15 11:15:45;;;;;;;3.28;1.40;;;16.80;84.70;;;;;;5029358;28;20462;-73
2023/04/15 11:18:22;;;;;;;2.45;1.40;;;16.90;85.70;;;;;;5005881;28;20589;-74
2023/04/15 11:20:53;;;;;;;3.17;1.50;;;17.00;85.10;;;;;;5026916;28;20022;-75
2023/04/15 11:23:30;;;;;;;4.43;2.33;;;17.00;83.70;;;;;;5028872;28;20022;-74
2023/04/15 11:25:59;;;;;;;2.42;1.48;;;17.00;79.30;;;;;;5026970;28;20037;-75
2023/04/15 11:28:30;;;;;;;4.57;1.67;;;17.20;80.70;;;;;;5028954;28;20022;-75
2023/04/15 11:30:56;;;;;;;2.83;1.05;;;17.30;78.30;;;;;;5023321;28;20039;-74
2023/04/15 11:33:22;;;;;;;5.00;1.67;;;17.50;83.90;;;;;;5028793;28;20049;-74
2023/04/15 11:35:48;;;;;;;4.35;1.50;;;17.40;82.10;;;;;;5027034;28;20045;-75
2023/04/15 11:38:15;;;;;;;3.55;1.80;;;17.40;82.20;;;;;;5029538;28;20392;-74
2023/04/15 11:40:43;;;;;;;1.98;1.02;;;17.30;82.20;;;;;;5030336;28;20435;-73
2023/04/15 11:43:12;;;;;;;4.28;1.80;;;17.20;83.30;;;;;;5021683;28;20372;-74
2023/04/15 11:45:51;;;;;;;4.30;1.58;;;17.30;81.40;;;;;;5029140;28;20037;-74
2023/04/15 11:48:19;;;;;;;4.00;1.65;;;17.30;78.90;;;;;;5012370;28;20120;-74
2023/04/15 11:50:45;;;;;;;4.72;1.60;;;17.50;80.40;;;;;;5029185;28;20032;-75
2023/04/15 11:53:13;;;;;;;3.13;1.30;;;17.70;75.70;;;;;;5016581;28;20432;-75
2023/04/15 11:55:46;;;;;;;4.68;1.33;;;18.00;75.00;;;;;;5027847;28;20075;-74
2023/04/15 11:58:15;;;;;;;2.70;1.08;;;18.40;80.70;;;;;;5010388;28;20203;-76
2023/04/15 12:00:41;;;;;;;4.65;1.40;;;18.50;80.10;;;;;;5027615;28;20026;-75
2023/04/15 12:03:20;;;;;;;3.85;1.50;;;18.50;79.30;;;;;;5029321;28;20507;-75
2023/04/15 12:06:04;;;;;;;3.13;1.08;;;18.30;78.60;;;;;;5028595;28;20060;-75
2023/04/15 12:09:08;;;;;;;2.67;1.00;;;18.10;78.20;;;;;;5028477;28;20022;-76
2023/04/15 12:11:43;;;;;;;4.75;1.42;;;18.20;82.60;;;;;;5026382;28;20052;-75
2023/04/15 12:14:27;;;;;;;4.43;1.48;;;18.40;75.60;;;;;;5029256;28;20040;-76
2023/04/15 12:17:01;;;;;;;3.58;1.15;;;18.30;73.50;;;;;;5010550;28;20569;-75
2023/04/15 12:19:42;;;;;;;2.55;1.05;;;18.20;80.60;;;;;;5005540;28;20029;-76
2023/04/15 12:22:09;;;;;;;;;;;18.20;80.70;;;;;;5010994;28;20033;-75
2023/04/15 12:24:36;;;;;;;2.90;1.02;;;18.30;78.40;;;;;;5028011;28;19909;-74
2023/04/15 12:27:04;;;;;;;3.30;1.05;;;18.30;82.00;;;;;;5028551;28;20025;-76
2023/04/15 12:29:31;;;;;;;2.47;1.10;;;18.10;80.50;;;;;;5005501;28;20026;-75
2023/04/15 12:32:08;;;;;;;2.47;0.70;;;18.10;80.00;;;;;;5035883;28;20060;-75
2023/04/15 12:34:39;;;;;;;2.85;0.82;;;18.30;84.20;;;;;;5038384;28;20116;-75
2023/04/15 12:37:13;;;;;;;3.95;1.33;;;18.50;84.30;;;;;;5033600;28;20017;-75
2023/04/15 12:39:41;;;;;;;3.42;1.20;;;18.50;82.30;;;;;;5031806;28;20022;-79
2023/04/15 12:42:08;;;;;;;2.72;0.93;;;18.30;83.30;;;;;;5033726;28;20013;-75
2023/04/15 12:44:35;;;;;;;2.42;1.00;;;18.20;82.50;;;;;;5038231;28;20025;-75
2023/04/15 12:47:01;;;;;;;4.15;0.98;;;18.10;77.80;;;;;;5033532;28;20025;-74